Time;durP1;ratioP1;P1;durP2;ratioP2;P2;SDS_P1;SDS_P2;PMS_P1;PMS_P2;Temp;Humidity;BMP_temperature;BMP_pressure;BME280_temperature;BME280_humidity;BME280_pressure;Samples;Min_cycle;Max_cycle;Signal;HPM_P1;HPM_P2
2024/04/19 00:06:47;;;;;;;0.20;0.10;;;-0.30;95.90;;;;;;22594636;26;20132;-37
2024/04/19 00:16:48;;;;;;;0.10;0.00;;;-0.40;95.70;;;;;;22704036;26;20077;-37
2024/04/19 00:26:50;;;;;;;0.10;0.00;;;-0.20;95.20;;;;;;22670735;26;20037;-38
2024/04/19 00:37:12;;;;;;;0.10;0.10;;;0.10;94.50;;;;;;22655299;26;20030;-38
2024/04/19 00:47:15;;;;;;;0.10;0.00;;;0.00;95.60;;;;;;22687187;26;20134;-38
2024/04/19 00:57:17;;;;;;;0.10;0.10;;;-0.30;95.40;;;;;;22666961;26;20092;-37
2024/04/19 01:07:19;;;;;;;0.10;0.00;;;-0.40;95.40;;;;;;22701705;26;20046;-38
2024/04/19 01:17:23;;;;;;;0.10;0.00;;;-0.20;95.30;;;;;;22671447;26;20030;-38
2024/04/19 01:27:25;;;;;;;0.43;0.10;;;0.00;94.50;;;;;;22619526;26;20062;-37
2024/04/19 01:37:26;;;;;;;0.10;0.00;;;0.10;93.50;;;;;;22606067;26;20038;-37
2024/04/19 01:47:28;;;;;;;0.15;0.05;;;0.40;93.20;;;;;;22694790;26;20089;-37
2024/04/19 01:57:31;;;;;;;0.20;0.00;;;0.50;93.50;;;;;;22678248;26;20026;-37
2024/04/19 02:07:32;;;;;;;0.35;0.10;;;0.60;92.90;;;;;;22605984;26;20057;-37
2024/04/19 02:17:34;;;;;;;0.28;0.10;;;0.90;92.70;;;;;;22712627;26;20033;-38
2024/04/19 02:37:56;;;;;;;0.17;0.10;;;0.70;92.90;;;;;;22366434;26;20032;-38
2024/04/19 02:47:58;;;;;;;0.25;0.00;;;0.80;92.20;;;;;;22368296;26;20377;-38
2024/04/19 02:57:59;;;;;;;0.15;0.10;;;0.90;91.70;;;;;;22400853;26;20031;-38
2024/04/19 03:08:30;;;;;;;0.00;0.00;;;0.60;92.80;;;;;;22068967;26;20001;-37
2024/04/19 03:18:33;;;;;;;0.03;0.00;;;-0.20;94.60;;;;;;22095690;26;20005;-37
2024/04/19 03:28:34;;;;;;;0.28;0.00;;;-0.70;96.00;;;;;;22089652;26;20043;-37
2024/04/19 03:38:36;;;;;;;0.00;0.00;;;-1.30;96.00;;;;;;22249101;26;20131;-37
2024/04/19 03:48:38;;;;;;;0.10;0.00;;;-0.60;94.60;;;;;;22295743;26;20024;-37
2024/04/19 03:58:39;;;;;;;0.10;0.00;;;0.20;91.90;;;;;;22475879;26;20067;-37
2024/04/19 04:08:41;;;;;;;0.30;0.03;;;0.60;92.70;;;;;;22466478;26;20031;-37
2024/04/19 04:18:43;;;;;;;0.47;0.10;;;0.10;93.10;;;;;;22554965;26;20201;-37
2024/04/19 04:28:45;;;;;;;0.57;0.10;;;-0.20;92.80;;;;;;22552380;26;20019;-38
2024/04/19 04:38:46;;;;;;;0.28;0.10;;;0.00;92.70;;;;;;22505527;26;20092;-37
2024/04/19 04:48:48;;;;;;;0.13;0.10;;;0.30;92.40;;;;;;22514374;26;20028;-38
2024/04/19 04:58:50;;;;;;;0.10;0.03;;;0.40;91.90;;;;;;22461345;26;20052;-37
2024/04/19 05:08:52;;;;;;;0.20;0.10;;;0.50;92.20;;;;;;22448094;26;20118;-38
2024/04/19 05:18:55;;;;;;;0.40;0.00;;;0.70;91.70;;;;;;22400226;26;20044;-37
2024/04/19 05:28:57;;;;;;;0.35;0.10;;;1.20;90.60;;;;;;22503696;26;20098;-38
2024/04/19 05:38:59;;;;;;;0.10;0.10;;;1.60;90.50;;;;;;22552359;26;20051;-38
2024/04/19 05:49:06;;;;;;;0.20;0.00;;;2.10;90.30;;;;;;22227728;26;20000;-38
2024/04/19 05:59:08;;;;;;;0.10;0.00;;;2.60;88.10;;;;;;22117786;26;20009;-38
2024/04/19 06:09:10;;;;;;;0.25;0.10;;;3.00;87.80;;;;;;22111877;26;20008;-38
2024/04/19 06:19:12;;;;;;;0.32;0.05;;;3.30;87.60;;;;;;22472416;26;20035;-37
2024/04/19 06:29:14;;;;;;;0.85;0.30;;;3.60;85.80;;;;;;22561510;26;20043;-38
2024/04/19 06:39:25;;;;;;;0.30;0.10;;;3.90;86.70;;;;;;22561897;26;20047;-38
2024/04/19 06:49:27;;;;;;;0.25;0.10;;;4.20;85.30;;;;;;22552256;26;20026;-37
2024/04/19 06:59:29;;;;;;;0.08;0.00;;;4.50;86.20;;;;;;22557071;26;20372;-38
2024/04/19 07:09:32;;;;;;;0.17;0.00;;;4.50;83.80;;;;;;22555683;26;20035;-38
2024/04/19 07:19:34;;;;;;;0.17;0.10;;;4.80;83.40;;;;;;22555328;26;20031;-39
2024/04/19 07:29:35;;;;;;;0.05;0.00;;;5.10;80.90;;;;;;22556528;26;20383;-38
2024/04/19 07:39:37;;;;;;;0.10;0.00;;;5.50;80.20;;;;;;22548020;26;20038;-38
2024/04/19 07:49:42;;;;;;;0.38;0.00;;;5.80;85.10;;;;;;22552522;26;20086;-38
2024/04/19 07:59:43;;;;;;;0.30;0.08;;;6.60;87.60;;;;;;22549827;26;20035;-39
2024/04/19 08:09:45;;;;;;;0.00;0.00;;;7.30;85.70;;;;;;22556084;26;20066;-38
2024/04/19 08:19:51;;;;;;;0.85;0.20;;;7.60;85.20;;;;;;22552818;26;22785;-39
2024/04/19 08:29:56;;;;;;;0.10;0.10;;;8.10;83.70;;;;;;22546856;26;20038;-39
2024/04/19 08:39:59;;;;;;;0.20;0.10;;;8.90;89.10;;;;;;22547850;26;20488;-38
2024/04/19 08:50:03;;;;;;;0.43;0.13;;;9.80;84.10;;;;;;22519982;26;20030;-41
2024/04/19 09:00:05;;;;;;;0.82;0.30;;;9.80;88.10;;;;;;22548951;26;20551;-39
2024/04/19 09:10:09;;;;;;;0.50;0.30;;;10.80;90.20;;;;;;22525922;26;20009;-39
2024/04/19 09:20:11;;;;;;;0.80;0.30;;;10.50;90.60;;;;;;22547493;26;20026;-39
2024/04/19 09:30:13;;;;;;;2.30;0.32;;;10.80;88.20;;;;;;22543424;26;20020;-39
2024/04/19 09:40:15;;;;;;;0.40;0.30;;;10.90;90.50;;;;;;22579638;26;20026;-39
2024/04/19 09:50:22;;;;;;;0.52;0.30;;;10.80;89.00;;;;;;22552239;26;20168;-38
2024/04/19 10:00:28;;;;;;;0.60;0.20;;;11.30;90.50;;;;;;22556058;26;20034;-40
2024/04/19 10:10:29;;;;;;;0.70;0.40;;;11.70;92.50;;;;;;22557575;26;20023;-39
2024/04/19 10:20:31;;;;;;;0.90;0.60;;;12.20;90.00;;;;;;22530814;26;20060;-40
2024/04/19 10:30:34;;;;;;;2.30;0.80;;;12.40;90.90;;;;;;22510904;26;20555;-41
2024/04/19 10:40:36;;;;;;;2.67;0.70;;;12.50;90.40;;;;;;22554314;26;20034;-40
2024/04/19 10:50:40;;;;;;;0.50;0.40;;;12.80;90.20;;;;;;22558112;26;20104;-41
2024/04/19 11:01:00;;;;;;;0.65;0.50;;;12.20;92.40;;;;;;22552987;26;20521;-38
2024/04/19 11:11:05;;;;;;;0.95;0.40;;;12.40;89.00;;;;;;22554885;26;20031;-38
2024/04/19 11:21:07;;;;;;;0.75;0.30;;;12.00;88.40;;;;;;22558987;26;20104;-39
2024/04/19 11:31:10;;;;;;;0.82;0.40;;;12.00;86.30;;;;;;22552833;26;20022;-39
2024/04/19 11:41:14;;;;;;;0.70;0.40;;;11.90;89.40;;;;;;22554700;26;20088;-39
2024/04/19 11:51:19;;;;;;;0.70;0.65;;;11.70;84.80;;;;;;22552949;26;20372;-39
2024/04/19 12:01:26;;;;;;;1.02;0.40;;;12.00;89.60;;;;;;22248554;26;20000;-39
2024/04/19 12:11:28;;;;;;;1.30;0.32;;;12.00;88.30;;;;;;22344949;26;19999;-40
2024/04/19 12:21:30;;;;;;;1.33;0.75;;;12.60;84.90;;;;;;22387772;26;19999;-40
2024/04/19 12:31:32;;;;;;;1.98;1.10;;;13.10;83.40;;;;;;22516629;26;20026;-40
2024/04/19 12:41:34;;;;;;;2.75;1.50;;;12.60;87.90;;;;;;22545414;26;20026;-43
2024/04/19 12:51:36;;;;;;;2.60;1.75;;;12.40;88.70;;;;;;22514412;26;20031;-42
2024/04/19 13:01:38;;;;;;;1.45;1.20;;;13.20;90.80;;;;;;22544330;26;20487;-41
2024/04/19 13:11:40;;;;;;;5.53;1.40;;;14.30;87.00;;;;;;22519189;26;20097;-39
2024/04/19 13:21:43;;;;;;;2.70;1.88;;;12.70;85.20;;;;;;22555096;26;20093;-40
2024/04/19 13:31:46;;;;;;;1.88;1.40;;;12.10;91.00;;;;;;22555517;26;20088;-40
2024/04/19 13:41:48;;;;;;;1.58;1.20;;;13.00;89.10;;;;;;22554126;26;20554;-40
2024/04/19 13:51:50;;;;;;;5.38;1.65;;;13.00;89.10;;;;;;22560270;26;20035;-40
2024/04/19 14:01:52;;;;;;;4.30;1.65;;;12.70;85.20;;;;;;22537115;26;20046;-39
2024/04/19 14:11:54;;;;;;;1.90;1.58;;;11.80;86.40;;;;;;22557051;26;20393;-40
2024/04/19 14:21:56;;;;;;;3.38;1.45;;;11.30;87.70;;;;;;22556093;26;20034;-41
2024/04/19 14:31:58;;;;;;;2.35;1.60;;;12.00;87.30;;;;;;22465353;26;20026;-40
2024/04/19 14:42:00;;;;;;;2.63;1.90;;;12.30;86.60;;;;;;22558379;26;20027;-40
2024/04/19 14:52:05;;;;;;;2.00;1.70;;;11.70;88.80;;;;;;22557035;26;20031;-39
2024/04/19 15:02:07;;;;;;;3.67;1.80;;;11.40;88.70;;;;;;22519894;26;20035;-39
2024/04/19 15:12:09;;;;;;;2.40;1.90;;;10.70;87.60;;;;;;22545240;26;20031;-40
2024/04/19 15:22:13;;;;;;;3.00;1.80;;;9.80;86.80;;;;;;22523203;26;20121;-39
2024/04/19 15:32:15;;;;;;;3.08;1.75;;;9.20;91.10;;;;;;22551469;26;20034;-39
2024/04/19 15:42:17;;;;;;;2.28;1.75;;;9.10;89.10;;;;;;22560886;26;20410;-38
2024/04/19 15:52:20;;;;;;;3.00;1.95;;;8.70;90.10;;;;;;22550218;26;20023;-39
2024/04/19 16:02:22;;;;;;;2.47;1.80;;;8.70;88.40;;;;;;22551630;26;20434;-39
2024/04/19 16:12:24;;;;;;;4.40;2.20;;;8.40;89.00;;;;;;22557919;26;20026;-39
2024/04/19 16:22:26;;;;;;;3.80;2.25;;;7.60;90.10;;;;;;22578574;26;20026;-38
2024/04/19 16:32:27;;;;;;;3.53;2.40;;;7.00;91.00;;;;;;22552023;26;20142;-38
2024/04/19 16:42:31;;;;;;;3.47;2.75;;;6.70;91.50;;;;;;22552227;26;20039;-38
2024/04/19 16:52:33;;;;;;;3.42;2.65;;;6.40;91.90;;;;;;22595188;26;20378;-38
2024/04/19 17:02:38;;;;;;;6.00;3.00;;;5.90;92.60;;;;;;22623582;26;20030;-38
2024/04/19 17:12:39;;;;;;;5.70;2.47;;;5.70;91.90;;;;;;22671287;26;20075;-38
2024/04/19 17:22:45;;;;;;;3.45;2.40;;;5.30;92.80;;;;;;22701290;26;20069;-37
2024/04/19 17:32:46;;;;;;;5.35;2.95;;;5.60;93.10;;;;;;22682605;26;20013;-37
2024/04/19 17:42:49;;;;;;;3.95;2.80;;;4.90;93.10;;;;;;22668220;26;20092;-38
2024/04/19 17:52:51;;;;;;;4.18;2.30;;;4.80;92.90;;;;;;22647024;26;20002;-38
2024/04/19 18:02:53;;;;;;;6.07;2.20;;;4.50;92.70;;;;;;22698140;26;20095;-38
2024/04/19 18:12:55;;;;;;;3.78;1.50;;;4.30;92.60;;;;;;22625720;26;20026;-38
2024/04/19 18:22:59;;;;;;;2.92;1.58;;;4.50;91.10;;;;;;22608215;26;20030;-37
2024/04/19 18:33:03;;;;;;;1.40;0.90;;;4.20;91.50;;;;;;22590437;26;20039;-38
2024/04/19 18:43:06;;;;;;;1.55;1.10;;;4.40;90.10;;;;;;22687052;26;20029;-38
2024/04/19 18:53:10;;;;;;;5.57;0.90;;;4.70;88.40;;;;;;22616129;26;20026;-37
2024/04/19 19:03:12;;;;;;;4.00;0.70;;;5.00;85.70;;;;;;22665458;26;20361;-38
2024/04/19 19:13:14;;;;;;;1.85;1.02;;;5.20;86.10;;;;;;22687985;26;20033;-38
2024/04/19 19:23:17;;;;;;;1.00;0.70;;;5.00;87.90;;;;;;22654315;26;20034;-37
2024/04/19 19:33:21;;;;;;;1.30;0.60;;;5.10;85.60;;;;;;22554713;26;20051;-38
2024/04/19 19:43:23;;;;;;;1.50;0.90;;;4.90;84.70;;;;;;22687683;26;20033;-42
2024/04/19 19:53:24;;;;;;;2.42;0.80;;;5.00;86.00;;;;;;22653876;26;20050;-37
2024/04/19 20:13:46;;;;;;;1.83;0.70;;;4.90;86.20;;;;;;22693496;26;20010;-38
2024/04/19 20:23:48;;;;;;;1.00;0.60;;;5.50;84.50;;;;;;22703956;26;20271;-38
2024/04/19 20:33:50;;;;;;;1.20;0.80;;;5.10;87.80;;;;;;22669931;26;20039;-38
2024/04/19 20:43:52;;;;;;;1.88;0.93;;;4.70;88.20;;;;;;22693341;26;20046;-38
2024/04/19 20:53:54;;;;;;;2.67;0.65;;;4.90;85.60;;;;;;22651513;26;20026;-38
2024/04/19 21:03:57;;;;;;;2.33;0.60;;;4.90;88.70;;;;;;22671633;26;20026;-38
2024/04/19 21:13:59;;;;;;;2.85;0.85;;;5.10;88.10;;;;;;22700749;26;20100;-38
2024/04/19 21:24:01;;;;;;;2.00;0.93;;;4.80;87.20;;;;;;22608080;26;20096;-38
2024/04/19 21:34:04;;;;;;;1.83;0.77;;;4.40;89.10;;;;;;22550506;26;20098;-38
2024/04/19 21:44:05;;;;;;;2.22;0.93;;;3.90;91.20;;;;;;22660592;26;20061;-38
2024/04/19 21:54:09;;;;;;;1.33;0.85;;;3.80;89.90;;;;;;22662384;26;20022;-38
2024/04/19 22:04:11;;;;;;;2.30;0.70;;;4.40;88.80;;;;;;22610354;26;20031;-38
2024/04/19 22:14:17;;;;;;;1.50;0.73;;;5.10;86.10;;;;;;22707374;26;20030;-38
2024/04/19 22:24:19;;;;;;;1.10;0.52;;;5.10;87.50;;;;;;22680685;26;20026;-39
2024/04/19 22:34:21;;;;;;;0.65;0.50;;;5.60;87.80;;;;;;22637861;26;20104;-38
2024/04/19 22:44:23;;;;;;;1.25;0.40;;;5.90;86.60;;;;;;22707069;26;20030;-38
2024/04/19 22:54:25;;;;;;;1.35;0.70;;;6.10;87.00;;;;;;22658425;26;20028;-37
2024/04/19 23:04:26;;;;;;;1.13;0.38;;;6.00;87.30;;;;;;22710468;26;20026;-38
2024/04/19 23:14:28;;;;;;;0.88;0.40;;;5.70;88.70;;;;;;22709783;26;20030;-38
2024/04/19 23:24:31;;;;;;;1.15;0.50;;;5.50;89.10;;;;;;22639442;26;20034;-38
2024/04/19 23:34:33;;;;;;;1.48;0.43;;;5.50;88.80;;;;;;22528182;26;20049;-37
2024/04/19 23:44:35;;;;;;;2.92;0.70;;;5.40;89.50;;;;;;22706913;26;20022;-38
2024/04/19 23:54:37;;;;;;;0.65;0.40;;;5.20;88.70;;;;;;22653685;26;20089;-38
